sensor_id;sensor_type;location;lat;lon;timestamp;P1;durP1;ratioP1;P2;durP2;ratioP2
48588;SDS011;34369;51.174;6.738;2023-02-15T00:02:16;58.87;;;54.07;;
48588;SDS011;34369;51.174;6.738;2023-02-15T00:04:49;57.63;;;52.87;;
48588;SDS011;34369;51.174;6.738;2023-02-15T00:07:21;56.43;;;51.83;;
48588;SDS011;34369;51.174;6.738;2023-02-15T00:09:53;57.17;;;52.37;;
48588;SDS011;34369;51.174;6.738;2023-02-15T00:12:26;56.37;;;51.77;;
48588;SDS011;34369;51.174;6.738;2023-02-15T00:14:58;57.73;;;53.13;;
48588;SDS011;34369;51.174;6.738;2023-02-15T00:17:30;57.00;;;52.33;;
48588;SDS011;34369;51.174;6.738;2023-02-15T00:20:02;56.50;;;51.87;;
48588;SDS011;34369;51.174;6.738;2023-02-15T00:22:34;58.97;;;53.87;;
48588;SDS011;34369;51.174;6.738;2023-02-15T00:25:06;57.37;;;52.50;;
48588;SDS011;34369;51.174;6.738;2023-02-15T00:27:40;57.23;;;52.47;;
48588;SDS011;34369;51.174;6.738;2023-02-15T00:30:12;56.47;;;51.73;;
48588;SDS011;34369;51.174;6.738;2023-02-15T00:32:45;57.87;;;52.63;;
48588;SDS011;34369;51.174;6.738;2023-02-15T00:35:18;58.83;;;53.93;;
48588;SDS011;34369;51.174;6.738;2023-02-15T00:37:50;61.33;;;56.13;;
48588;SDS011;34369;51.174;6.738;2023-02-15T00:40:23;61.20;;;55.90;;
48588;SDS011;34369;51.174;6.738;2023-02-15T00:42:56;59.57;;;54.47;;
48588;SDS011;34369;51.174;6.738;2023-02-15T00:45:28;59.90;;;54.90;;
48588;SDS011;34369;51.174;6.738;2023-02-15T00:48:00;57.23;;;52.53;;
48588;SDS011;34369;51.174;6.738;2023-02-15T00:50:32;60.47;;;55.37;;
48588;SDS011;34369;51.174;6.738;2023-02-15T00:53:04;62.07;;;56.83;;
48588;SDS011;34369;51.174;6.738;2023-02-15T00:55:36;60.07;;;55.17;;
48588;SDS011;34369;51.174;6.738;2023-02-15T00:58:11;60.13;;;55.10;;
48588;SDS011;34369;51.174;6.738;2023-02-15T01:00:44;62.20;;;56.70;;
48588;SDS011;34369;51.174;6.738;2023-02-15T01:03:18;59.87;;;54.53;;
48588;SDS011;34369;51.174;6.738;2023-02-15T01:05:51;62.17;;;56.80;;
48588;SDS011;34369;51.174;6.738;2023-02-15T01:08:23;62.40;;;56.83;;
48588;SDS011;34369;51.174;6.738;2023-02-15T01:10:55;63.30;;;57.77;;
48588;SDS011;34369;51.174;6.738;2023-02-15T01:13:29;61.93;;;56.43;;
48588;SDS011;34369;51.174;6.738;2023-02-15T01:16:01;63.07;;;57.47;;
48588;SDS011;34369;51.174;6.738;2023-02-15T01:18:34;56.37;;;51.47;;
48588;SDS011;34369;51.174;6.738;2023-02-15T01:21:10;64.10;;;58.77;;
48588;SDS011;34369;51.174;6.738;2023-02-15T01:23:44;61.13;;;56.07;;
48588;SDS011;34369;51.174;6.738;2023-02-15T01:26:16;58.83;;;53.93;;
48588;SDS011;34369;51.174;6.738;2023-02-15T01:28:50;61.07;;;55.73;;
48588;SDS011;34369;51.174;6.738;2023-02-15T01:31:22;57.53;;;52.63;;
48588;SDS011;34369;51.174;6.738;2023-02-15T01:33:54;59.43;;;54.50;;
48588;SDS011;34369;51.174;6.738;2023-02-15T01:36:26;60.73;;;55.53;;
48588;SDS011;34369;51.174;6.738;2023-02-15T01:38:58;62.40;;;57.03;;
48588;SDS011;34369;51.174;6.738;2023-02-15T01:41:32;63.40;;;58.10;;
48588;SDS011;34369;51.174;6.738;2023-02-15T01:47:21;57.07;;;52.17;;
48588;SDS011;34369;51.174;6.738;2023-02-15T01:49:58;62.20;;;56.97;;
48588;SDS011;34369;51.174;6.738;2023-02-15T01:52:37;59.60;;;54.63;;
48588;SDS011;34369;51.174;6.738;2023-02-15T01:55:13;56.45;;;51.67;;
48588;SDS011;34369;51.174;6.738;2023-02-15T01:57:45;57.93;;;53.23;;
48588;SDS011;34369;51.174;6.738;2023-02-15T02:00:19;59.30;;;54.37;;
48588;SDS011;34369;51.174;6.738;2023-02-15T02:02:53;62.87;;;57.73;;
48588;SDS011;34369;51.174;6.738;2023-02-15T02:05:28;59.23;;;54.30;;
48588;SDS011;34369;51.174;6.738;2023-02-15T02:08:01;60.57;;;55.43;;
48588;SDS011;34369;51.174;6.738;2023-02-15T02:10:34;62.30;;;57.20;;
48588;SDS011;34369;51.174;6.738;2023-02-15T02:13:06;60.90;;;55.87;;
48588;SDS011;34369;51.174;6.738;2023-02-15T02:15:42;59.50;;;54.50;;
48588;SDS011;34369;51.174;6.738;2023-02-15T02:18:25;58.90;;;54.10;;
48588;SDS011;34369;51.174;6.738;2023-02-15T02:24:23;56.93;;;52.33;;
48588;SDS011;34369;51.174;6.738;2023-02-15T02:27:23;61.60;;;56.63;;
48588;SDS011;34369;51.174;6.738;2023-02-15T02:30:15;58.20;;;53.47;;
48588;SDS011;34369;51.174;6.738;2023-02-15T02:33:19;57.50;;;52.87;;
48588;SDS011;34369;51.174;6.738;2023-02-15T02:36:19;58.93;;;54.07;;
48588;SDS011;34369;51.174;6.738;2023-02-15T02:39:06;60.20;;;55.30;;
48588;SDS011;34369;51.174;6.738;2023-02-15T02:41:53;62.47;;;57.37;;
48588;SDS011;34369;51.174;6.738;2023-02-15T02:44:34;54.95;;;50.10;;
48588;SDS011;34369;51.174;6.738;2023-02-15T02:47:15;59.23;;;54.37;;
48588;SDS011;34369;51.174;6.738;2023-02-15T02:49:59;58.73;;;53.87;;
48588;SDS011;34369;51.174;6.738;2023-02-15T02:52:37;58.73;;;54.10;;
48588;SDS011;34369;51.174;6.738;2023-02-15T02:55:13;60.23;;;55.03;;
48588;SDS011;34369;51.174;6.738;2023-02-15T02:57:53;57.03;;;52.30;;
48588;SDS011;34369;51.174;6.738;2023-02-15T03:00:31;62.50;;;57.50;;
48588;SDS011;34369;51.174;6.738;2023-02-15T03:03:09;58.33;;;53.50;;
48588;SDS011;34369;51.174;6.738;2023-02-15T03:05:46;57.57;;;52.67;;
48588;SDS011;34369;51.174;6.738;2023-02-15T03:08:24;59.07;;;53.90;;
48588;SDS011;34369;51.174;6.738;2023-02-15T03:11:03;61.93;;;56.73;;
48588;SDS011;34369;51.174;6.738;2023-02-15T03:13:35;61.53;;;56.27;;
48588;SDS011;34369;51.174;6.738;2023-02-15T03:16:07;61.47;;;56.27;;
48588;SDS011;34369;51.174;6.738;2023-02-15T03:18:57;59.67;;;54.57;;
48588;SDS011;34369;51.174;6.738;2023-02-15T03:21:35;56.20;;;51.47;;
48588;SDS011;34369;51.174;6.738;2023-02-15T03:24:12;60.17;;;55.23;;
48588;SDS011;34369;51.174;6.738;2023-02-15T03:26:46;61.00;;;56.00;;
48588;SDS011;34369;51.174;6.738;2023-02-15T03:29:22;63.40;;;58.27;;
48588;SDS011;34369;51.174;6.738;2023-02-15T03:31:58;53.63;;;49.10;;
48588;SDS011;34369;51.174;6.738;2023-02-15T03:34:31;59.87;;;55.07;;
48588;SDS011;34369;51.174;6.738;2023-02-15T03:37:05;60.13;;;55.03;;
48588;SDS011;34369;51.174;6.738;2023-02-15T03:39:45;59.23;;;54.13;;
48588;SDS011;34369;51.174;6.738;2023-02-15T03:42:24;60.67;;;55.77;;
48588;SDS011;34369;51.174;6.738;2023-02-15T03:47:36;58.87;;;54.07;;
48588;SDS011;34369;51.174;6.738;2023-02-15T03:50:12;54.17;;;49.08;;
48588;SDS011;34369;51.174;6.738;2023-02-15T03:53:09;57.17;;;52.20;;
48588;SDS011;34369;51.174;6.738;2023-02-15T03:55:45;54.17;;;49.80;;
48588;SDS011;34369;51.174;6.738;2023-02-15T03:58:18;60.73;;;55.93;;
48588;SDS011;34369;51.174;6.738;2023-02-15T04:01:23;53.27;;;48.53;;
48588;SDS011;34369;51.174;6.738;2023-02-15T04:04:18;52.27;;;48.10;;
48588;SDS011;34369;51.174;6.738;2023-02-15T04:06:53;57.77;;;52.93;;
48588;SDS011;34369;51.174;6.738;2023-02-15T04:09:26;59.17;;;54.40;;
48588;SDS011;34369;51.174;6.738;2023-02-15T04:12:16;58.40;;;53.70;;
48588;SDS011;34369;51.174;6.738;2023-02-15T04:14:48;58.23;;;53.17;;
48588;SDS011;34369;51.174;6.738;2023-02-15T04:17:37;60.87;;;55.87;;
48588;SDS011;34369;51.174;6.738;2023-02-15T04:20:09;61.20;;;56.20;;
48588;SDS011;34369;51.174;6.738;2023-02-15T04:22:59;58.30;;;53.57;;
48588;SDS011;34369;51.174;6.738;2023-02-15T04:25:50;54.63;;;50.33;;
48588;SDS011;34369;51.174;6.738;2023-02-15T04:28:22;59.47;;;54.57;;
48588;SDS011;34369;51.174;6.738;2023-02-15T04:30:55;59.07;;;54.27;;
48588;SDS011;34369;51.174;6.738;2023-02-15T04:33:26;53.17;;;48.97;;
48588;SDS011;34369;51.174;6.738;2023-02-15T04:35:58;60.53;;;55.70;;
48588;SDS011;34369;51.174;6.738;2023-02-15T04:38:30;57.03;;;52.47;;
48588;SDS011;34369;51.174;6.738;2023-02-15T04:41:04;60.07;;;55.37;;
48588;SDS011;34369;51.174;6.738;2023-02-15T04:43:35;58.03;;;53.23;;
48588;SDS011;34369;51.174;6.738;2023-02-15T04:46:07;58.43;;;53.53;;
48588;SDS011;34369;51.174;6.738;2023-02-15T04:48:39;58.20;;;53.40;;
48588;SDS011;34369;51.174;6.738;2023-02-15T04:51:11;53.87;;;49.40;;
48588;SDS011;34369;51.174;6.738;2023-02-15T04:53:43;55.40;;;50.93;;
48588;SDS011;34369;51.174;6.738;2023-02-15T04:56:16;56.67;;;51.90;;
48588;SDS011;34369;51.174;6.738;2023-02-15T04:58:48;62.50;;;57.40;;
48588;SDS011;34369;51.174;6.738;2023-02-15T05:01:20;57.07;;;52.27;;
48588;SDS011;34369;51.174;6.738;2023-02-15T05:03:52;58.87;;;54.17;;
48588;SDS011;34369;51.174;6.738;2023-02-15T05:06:24;52.83;;;48.83;;
48588;SDS011;34369;51.174;6.738;2023-02-15T05:08:56;59.50;;;54.80;;
48588;SDS011;34369;51.174;6.738;2023-02-15T05:11:30;58.43;;;53.53;;
48588;SDS011;34369;51.174;6.738;2023-02-15T05:14:02;55.47;;;50.90;;
48588;SDS011;34369;51.174;6.738;2023-02-15T05:16:34;54.60;;;50.07;;
48588;SDS011;34369;51.174;6.738;2023-02-15T05:19:06;58.27;;;53.50;;
48588;SDS011;34369;51.174;6.738;2023-02-15T05:21:38;57.20;;;52.37;;
48588;SDS011;34369;51.174;6.738;2023-02-15T05:24:10;55.57;;;51.27;;
48588;SDS011;34369;51.174;6.738;2023-02-15T05:27:01;59.80;;;54.97;;
48588;SDS011;34369;51.174;6.738;2023-02-15T05:29:51;54.07;;;49.70;;
48588;SDS011;34369;51.174;6.738;2023-02-15T05:32:22;56.13;;;51.50;;
48588;SDS011;34369;51.174;6.738;2023-02-15T05:34:54;63.60;;;58.57;;
48588;SDS011;34369;51.174;6.738;2023-02-15T05:37:26;56.00;;;51.50;;
48588;SDS011;34369;51.174;6.738;2023-02-15T05:39:58;62.57;;;57.37;;
48588;SDS011;34369;51.174;6.738;2023-02-15T05:42:31;61.90;;;56.90;;
48588;SDS011;34369;51.174;6.738;2023-02-15T05:45:04;57.73;;;52.67;;
48588;SDS011;34369;51.174;6.738;2023-02-15T05:47:37;61.23;;;56.43;;
48588;SDS011;34369;51.174;6.738;2023-02-15T05:50:09;62.37;;;57.37;;
48588;SDS011;34369;51.174;6.738;2023-02-15T05:52:41;54.03;;;49.70;;
48588;SDS011;34369;51.174;6.738;2023-02-15T05:55:13;59.43;;;54.60;;
48588;SDS011;34369;51.174;6.738;2023-02-15T05:57:46;55.33;;;50.40;;
48588;SDS011;34369;51.174;6.738;2023-02-15T06:00:20;57.10;;;52.63;;
48588;SDS011;34369;51.174;6.738;2023-02-15T06:02:52;62.27;;;57.37;;
48588;SDS011;34369;51.174;6.738;2023-02-15T06:05:24;60.53;;;55.70;;
48588;SDS011;34369;51.174;6.738;2023-02-15T06:07:56;55.30;;;50.80;;
48588;SDS011;34369;51.174;6.738;2023-02-15T06:10:27;56.70;;;52.10;;
48588;SDS011;34369;51.174;6.738;2023-02-15T06:13:01;59.90;;;54.93;;
48588;SDS011;34369;51.174;6.738;2023-02-15T06:15:33;53.90;;;49.60;;
48588;SDS011;34369;51.174;6.738;2023-02-15T06:18:05;55.77;;;51.37;;
48588;SDS011;34369;51.174;6.738;2023-02-15T06:20:37;56.00;;;51.50;;
48588;SDS011;34369;51.174;6.738;2023-02-15T06:23:09;59.07;;;54.33;;
48588;SDS011;34369;51.174;6.738;2023-02-15T06:25:41;54.03;;;49.33;;
48588;SDS011;34369;51.174;6.738;2023-02-15T06:28:16;57.20;;;52.57;;
48588;SDS011;34369;51.174;6.738;2023-02-15T06:30:48;56.47;;;51.97;;
48588;SDS011;34369;51.174;6.738;2023-02-15T06:33:20;54.30;;;50.03;;
48588;SDS011;34369;51.174;6.738;2023-02-15T06:35:53;58.77;;;54.07;;
48588;SDS011;34369;51.174;6.738;2023-02-15T06:38:25;58.33;;;53.77;;
48588;SDS011;34369;51.174;6.738;2023-02-15T06:40:57;59.77;;;55.17;;
48588;SDS011;34369;51.174;6.738;2023-02-15T06:43:31;52.53;;;48.33;;
48588;SDS011;34369;51.174;6.738;2023-02-15T06:46:04;52.63;;;48.50;;
48588;SDS011;34369;51.174;6.738;2023-02-15T06:48:36;52.03;;;48.00;;
48588;SDS011;34369;51.174;6.738;2023-02-15T06:51:13;52.07;;;47.83;;
48588;SDS011;34369;51.174;6.738;2023-02-15T06:54:02;52.90;;;48.77;;
48588;SDS011;34369;51.174;6.738;2023-02-15T06:56:34;51.37;;;47.40;;
48588;SDS011;34369;51.174;6.738;2023-02-15T06:59:08;57.93;;;53.40;;
48588;SDS011;34369;51.174;6.738;2023-02-15T07:01:40;58.27;;;53.60;;
48588;SDS011;34369;51.174;6.738;2023-02-15T07:04:12;52.77;;;48.73;;
48588;SDS011;34369;51.174;6.738;2023-02-15T07:06:44;56.87;;;52.37;;
48588;SDS011;34369;51.174;6.738;2023-02-15T07:09:16;57.27;;;52.70;;
48588;SDS011;34369;51.174;6.738;2023-02-15T07:11:52;53.87;;;49.53;;
48588;SDS011;34369;51.174;6.738;2023-02-15T07:14:43;57.57;;;53.10;;
48588;SDS011;34369;51.174;6.738;2023-02-15T07:17:15;56.47;;;51.77;;
48588;SDS011;34369;51.174;6.738;2023-02-15T07:19:48;49.30;;;45.47;;
48588;SDS011;34369;51.174;6.738;2023-02-15T07:22:21;56.63;;;51.97;;
48588;SDS011;34369;51.174;6.738;2023-02-15T07:24:54;58.53;;;53.87;;
48588;SDS011;34369;51.174;6.738;2023-02-15T07:27:27;56.00;;;51.50;;
48588;SDS011;34369;51.174;6.738;2023-02-15T07:30:00;57.93;;;53.33;;
48588;SDS011;34369;51.174;6.738;2023-02-15T07:32:33;59.63;;;54.87;;
48588;SDS011;34369;51.174;6.738;2023-02-15T07:35:05;57.83;;;53.00;;
48588;SDS011;34369;51.174;6.738;2023-02-15T07:37:37;53.27;;;48.90;;
48588;SDS011;34369;51.174;6.738;2023-02-15T07:40:10;51.57;;;47.43;;
48588;SDS011;34369;51.174;6.738;2023-02-15T07:42:45;51.42;;;47.50;;
48588;SDS011;34369;51.174;6.738;2023-02-15T07:45:19;51.20;;;47.20;;
48588;SDS011;34369;51.174;6.738;2023-02-15T07:47:52;50.80;;;46.80;;
48588;SDS011;34369;51.174;6.738;2023-02-15T07:50:25;52.60;;;48.50;;
48588;SDS011;34369;51.174;6.738;2023-02-15T07:52:57;51.67;;;47.43;;
48588;SDS011;34369;51.174;6.738;2023-02-15T07:55:30;50.10;;;46.20;;
48588;SDS011;34369;51.174;6.738;2023-02-15T07:58:02;49.53;;;45.73;;
48588;SDS011;34369;51.174;6.738;2023-02-15T08:00:35;49.00;;;45.00;;
48588;SDS011;34369;51.174;6.738;2023-02-15T08:03:22;51.00;;;46.90;;
48588;SDS011;34369;51.174;6.738;2023-02-15T08:05:57;48.73;;;44.90;;
48588;SDS011;34369;51.174;6.738;2023-02-15T08:08:32;50.10;;;46.03;;
48588;SDS011;34369;51.174;6.738;2023-02-15T08:11:06;51.13;;;47.03;;
48588;SDS011;34369;51.174;6.738;2023-02-15T08:14:06;47.27;;;43.63;;
48588;SDS011;34369;51.174;6.738;2023-02-15T08:16:42;49.30;;;45.57;;
48588;SDS011;34369;51.174;6.738;2023-02-15T08:19:16;47.55;;;43.75;;
48588;SDS011;34369;51.174;6.738;2023-02-15T08:21:51;48.13;;;44.50;;
48588;SDS011;34369;51.174;6.738;2023-02-15T08:24:27;50.22;;;46.38;;
48588;SDS011;34369;51.174;6.738;2023-02-15T08:27:01;48.70;;;44.93;;
48588;SDS011;34369;51.174;6.738;2023-02-15T08:29:35;48.77;;;44.97;;
48588;SDS011;34369;51.174;6.738;2023-02-15T08:32:11;46.67;;;42.87;;
48588;SDS011;34369;51.174;6.738;2023-02-15T08:34:43;44.97;;;41.40;;
48588;SDS011;34369;51.174;6.738;2023-02-15T08:37:16;44.33;;;40.93;;
48588;SDS011;34369;51.174;6.738;2023-02-15T08:39:48;45.97;;;42.33;;
48588;SDS011;34369;51.174;6.738;2023-02-15T08:42:21;43.97;;;40.57;;
48588;SDS011;34369;51.174;6.738;2023-02-15T08:44:54;41.72;;;38.47;;
48588;SDS011;34369;51.174;6.738;2023-02-15T08:47:28;43.43;;;39.93;;
48588;SDS011;34369;51.174;6.738;2023-02-15T08:50:00;42.92;;;39.55;;
48588;SDS011;34369;51.174;6.738;2023-02-15T08:52:32;43.70;;;40.13;;
48588;SDS011;34369;51.174;6.738;2023-02-15T08:55:04;42.90;;;39.60;;
48588;SDS011;34369;51.174;6.738;2023-02-15T08:57:37;41.17;;;37.88;;
48588;SDS011;34369;51.174;6.738;2023-02-15T09:00:15;41.25;;;37.92;;
48588;SDS011;34369;51.174;6.738;2023-02-15T09:02:50;39.80;;;36.67;;
48588;SDS011;34369;51.174;6.738;2023-02-15T09:05:25;41.05;;;37.65;;
48588;SDS011;34369;51.174;6.738;2023-02-15T09:07:57;40.35;;;36.95;;
48588;SDS011;34369;51.174;6.738;2023-02-15T09:10:29;38.75;;;35.65;;
48588;SDS011;34369;51.174;6.738;2023-02-15T09:13:01;38.10;;;35.10;;
48588;SDS011;34369;51.174;6.738;2023-02-15T09:15:33;37.83;;;34.70;;
48588;SDS011;34369;51.174;6.738;2023-02-15T09:18:06;38.30;;;35.20;;
48588;SDS011;34369;51.174;6.738;2023-02-15T09:20:38;38.05;;;35.05;;
48588;SDS011;34369;51.174;6.738;2023-02-15T09:23:10;37.75;;;34.65;;
48588;SDS011;34369;51.174;6.738;2023-02-15T09:25:44;38.60;;;35.38;;
48588;SDS011;34369;51.174;6.738;2023-02-15T09:28:16;38.25;;;34.97;;
48588;SDS011;34369;51.174;6.738;2023-02-15T09:30:48;37.53;;;34.38;;
48588;SDS011;34369;51.174;6.738;2023-02-15T09:33:22;39.25;;;36.05;;
48588;SDS011;34369;51.174;6.738;2023-02-15T09:35:55;39.10;;;35.97;;
48588;SDS011;34369;51.174;6.738;2023-02-15T09:38:28;39.70;;;36.50;;
48588;SDS011;34369;51.174;6.738;2023-02-15T09:41:07;39.10;;;36.00;;
48588;SDS011;34369;51.174;6.738;2023-02-15T09:44:08;39.53;;;36.30;;
48588;SDS011;34369;51.174;6.738;2023-02-15T09:47:01;40.13;;;36.73;;
48588;SDS011;34369;51.174;6.738;2023-02-15T09:49:56;40.95;;;37.65;;
48588;SDS011;34369;51.174;6.738;2023-02-15T09:52:59;40.38;;;37.17;;
48588;SDS011;34369;51.174;6.738;2023-02-15T09:55:57;41.23;;;38.10;;
48588;SDS011;34369;51.174;6.738;2023-02-15T09:58:38;41.57;;;38.37;;
48588;SDS011;34369;51.174;6.738;2023-02-15T10:01:20;40.97;;;37.50;;
48588;SDS011;34369;51.174;6.738;2023-02-15T10:04:07;40.90;;;37.70;;
48588;SDS011;34369;51.174;6.738;2023-02-15T10:07:17;39.80;;;36.43;;
48588;SDS011;34369;51.174;6.738;2023-02-15T10:10:14;41.23;;;38.07;;
48588;SDS011;34369;51.174;6.738;2023-02-15T10:12:57;42.90;;;39.37;;
48588;SDS011;34369;51.174;6.738;2023-02-15T10:15:50;43.43;;;40.03;;
48588;SDS011;34369;51.174;6.738;2023-02-15T10:18:40;41.83;;;38.53;;
48588;SDS011;34369;51.174;6.738;2023-02-15T10:21:32;42.87;;;39.67;;
48588;SDS011;34369;51.174;6.738;2023-02-15T10:24:23;43.57;;;40.27;;
48588;SDS011;34369;51.174;6.738;2023-02-15T10:27:26;41.78;;;38.47;;
48588;SDS011;34369;51.174;6.738;2023-02-15T10:30:05;42.73;;;39.43;;
48588;SDS011;34369;51.174;6.738;2023-02-15T10:32:44;41.03;;;37.83;;
48588;SDS011;34369;51.174;6.738;2023-02-15T10:38:15;39.67;;;36.57;;
48588;SDS011;34369;51.174;6.738;2023-02-15T10:41:03;42.07;;;38.43;;
48588;SDS011;34369;51.174;6.738;2023-02-15T10:43:49;41.20;;;38.20;;
48588;SDS011;34369;51.174;6.738;2023-02-15T10:46:51;42.13;;;38.93;;
48588;SDS011;34369;51.174;6.738;2023-02-15T10:53:03;40.47;;;37.37;;
48588;SDS011;34369;51.174;6.738;2023-02-15T10:55:51;39.97;;;37.00;;
48588;SDS011;34369;51.174;6.738;2023-02-15T10:58:36;41.03;;;37.93;;
48588;SDS011;34369;51.174;6.738;2023-02-15T11:01:22;40.17;;;37.00;;
48588;SDS011;34369;51.174;6.738;2023-02-15T11:04:09;40.40;;;37.10;;
48588;SDS011;34369;51.174;6.738;2023-02-15T11:09:48;37.72;;;34.92;;
48588;SDS011;34369;51.174;6.738;2023-02-15T11:12:26;37.97;;;35.00;;
48588;SDS011;34369;51.174;6.738;2023-02-15T11:15:02;39.22;;;36.03;;
48588;SDS011;34369;51.174;6.738;2023-02-15T11:17:47;37.65;;;34.45;;
48588;SDS011;34369;51.174;6.738;2023-02-15T11:20:25;36.97;;;33.85;;
48588;SDS011;34369;51.174;6.738;2023-02-15T11:23:01;38.58;;;35.33;;
48588;SDS011;34369;51.174;6.738;2023-02-15T11:25:34;37.25;;;34.20;;
48588;SDS011;34369;51.174;6.738;2023-02-15T11:28:09;38.50;;;35.45;;
48588;SDS011;34369;51.174;6.738;2023-02-15T11:30:53;37.33;;;34.33;;
48588;SDS011;34369;51.174;6.738;2023-02-15T11:33:30;37.85;;;34.92;;
48588;SDS011;34369;51.174;6.738;2023-02-15T11:36:08;37.55;;;34.47;;
48588;SDS011;34369;51.174;6.738;2023-02-15T11:38:47;39.03;;;35.83;;
48588;SDS011;34369;51.174;6.738;2023-02-15T11:41:28;38.95;;;35.70;;
48588;SDS011;34369;51.174;6.738;2023-02-15T11:44:06;37.88;;;34.67;;
48588;SDS011;34369;51.174;6.738;2023-02-15T11:46:46;38.15;;;35.10;;
48588;SDS011;34369;51.174;6.738;2023-02-15T11:49:22;36.00;;;32.95;;
48588;SDS011;34369;51.174;6.738;2023-02-15T11:52:02;38.03;;;34.97;;
48588;SDS011;34369;51.174;6.738;2023-02-15T11:54:39;37.80;;;34.70;;
48588;SDS011;34369;51.174;6.738;2023-02-15T11:57:15;37.60;;;34.53;;
48588;SDS011;34369;51.174;6.738;2023-02-15T11:59:53;38.40;;;35.30;;
48588;SDS011;34369;51.174;6.738;2023-02-15T12:02:33;36.65;;;33.72;;
48588;SDS011;34369;51.174;6.738;2023-02-15T12:05:09;36.90;;;33.90;;
48588;SDS011;34369;51.174;6.738;2023-02-15T12:07:46;38.00;;;34.90;;
48588;SDS011;34369;51.174;6.738;2023-02-15T12:10:24;37.05;;;33.92;;
48588;SDS011;34369;51.174;6.738;2023-02-15T12:13:08;37.08;;;34.08;;
48588;SDS011;34369;51.174;6.738;2023-02-15T12:15:44;35.95;;;32.95;;
48588;SDS011;34369;51.174;6.738;2023-02-15T12:18:21;36.15;;;33.05;;
48588;SDS011;34369;51.174;6.738;2023-02-15T12:21:09;35.60;;;32.60;;
48588;SDS011;34369;51.174;6.738;2023-02-15T12:23:46;35.17;;;32.17;;
48588;SDS011;34369;51.174;6.738;2023-02-15T12:26:25;35.40;;;32.10;;
48588;SDS011;34369;51.174;6.738;2023-02-15T12:28:59;35.20;;;32.20;;
48588;SDS011;34369;51.174;6.738;2023-02-15T12:31:33;36.22;;;33.13;;
48588;SDS011;34369;51.174;6.738;2023-02-15T12:34:13;33.97;;;30.73;;
48588;SDS011;34369;51.174;6.738;2023-02-15T12:36:53;34.25;;;31.45;;
48588;SDS011;34369;51.174;6.738;2023-02-15T12:39:29;33.50;;;30.80;;
48588;SDS011;34369;51.174;6.738;2023-02-15T12:42:04;35.10;;;32.03;;
48588;SDS011;34369;51.174;6.738;2023-02-15T12:44:52;33.03;;;30.33;;
48588;SDS011;34369;51.174;6.738;2023-02-15T12:47:31;34.42;;;31.45;;
48588;SDS011;34369;51.174;6.738;2023-02-15T12:50:09;33.75;;;30.85;;
48588;SDS011;34369;51.174;6.738;2023-02-15T12:52:48;33.20;;;30.50;;
48588;SDS011;34369;51.174;6.738;2023-02-15T12:55:23;33.65;;;30.83;;
48588;SDS011;34369;51.174;6.738;2023-02-15T12:58:06;32.80;;;30.10;;
48588;SDS011;34369;51.174;6.738;2023-02-15T13:00:40;33.13;;;30.33;;
48588;SDS011;34369;51.174;6.738;2023-02-15T13:03:15;33.80;;;31.00;;
48588;SDS011;34369;51.174;6.738;2023-02-15T13:05:51;41.72;;;31.73;;
48588;SDS011;34369;51.174;6.738;2023-02-15T13:11:03;35.15;;;32.15;;
48588;SDS011;34369;51.174;6.738;2023-02-15T13:13:51;35.10;;;32.20;;
48588;SDS011;34369;51.174;6.738;2023-02-15T13:16:30;35.30;;;32.25;;
48588;SDS011;34369;51.174;6.738;2023-02-15T13:19:05;35.67;;;32.85;;
48588;SDS011;34369;51.174;6.738;2023-02-15T13:21:45;35.70;;;32.92;;
48588;SDS011;34369;51.174;6.738;2023-02-15T13:24:20;36.08;;;33.15;;
48588;SDS011;34369;51.174;6.738;2023-02-15T13:26:56;35.55;;;32.72;;
48588;SDS011;34369;51.174;6.738;2023-02-15T13:29:30;35.95;;;33.05;;
48588;SDS011;34369;51.174;6.738;2023-02-15T13:32:07;35.63;;;32.72;;
48588;SDS011;34369;51.174;6.738;2023-02-15T13:34:46;36.10;;;32.90;;
48588;SDS011;34369;51.174;6.738;2023-02-15T13:37:20;37.53;;;34.55;;
48588;SDS011;34369;51.174;6.738;2023-02-15T13:40:12;34.78;;;32.08;;
48588;SDS011;34369;51.174;6.738;2023-02-15T13:42:50;35.67;;;32.85;;
48588;SDS011;34369;51.174;6.738;2023-02-15T13:45:31;35.95;;;32.85;;
48588;SDS011;34369;51.174;6.738;2023-02-15T13:48:14;35.30;;;32.50;;
48588;SDS011;34369;51.174;6.738;2023-02-15T13:51:01;35.97;;;32.95;;
48588;SDS011;34369;51.174;6.738;2023-02-15T13:53:54;34.53;;;31.73;;
48588;SDS011;34369;51.174;6.738;2023-02-15T13:56:48;33.90;;;31.20;;
48588;SDS011;34369;51.174;6.738;2023-02-15T13:59:37;35.38;;;32.53;;
48588;SDS011;34369;51.174;6.738;2023-02-15T14:05:48;32.13;;;29.63;;
48588;SDS011;34369;51.174;6.738;2023-02-15T14:08:42;32.05;;;29.40;;
48588;SDS011;34369;51.174;6.738;2023-02-15T14:11:32;32.50;;;29.70;;
48588;SDS011;34369;51.174;6.738;2023-02-15T14:14:12;32.63;;;29.88;;
48588;SDS011;34369;51.174;6.738;2023-02-15T14:17:03;31.95;;;29.15;;
48588;SDS011;34369;51.174;6.738;2023-02-15T14:19:46;32.00;;;29.27;;
48588;SDS011;34369;51.174;6.738;2023-02-15T14:22:26;33.28;;;30.42;;
48588;SDS011;34369;51.174;6.738;2023-02-15T14:25:12;31.90;;;29.10;;
48588;SDS011;34369;51.174;6.738;2023-02-15T14:27:52;33.65;;;30.95;;
48588;SDS011;34369;51.174;6.738;2023-02-15T14:30:32;32.75;;;29.95;;
48588;SDS011;34369;51.174;6.738;2023-02-15T14:33:18;32.15;;;29.42;;
48588;SDS011;34369;51.174;6.738;2023-02-15T14:36:04;34.03;;;31.33;;
48588;SDS011;34369;51.174;6.738;2023-02-15T14:38:43;34.83;;;31.88;;
48588;SDS011;34369;51.174;6.738;2023-02-15T14:41:31;34.17;;;31.48;;
48588;SDS011;34369;51.174;6.738;2023-02-15T14:44:12;34.60;;;31.70;;
48588;SDS011;34369;51.174;6.738;2023-02-15T14:46:52;34.17;;;31.27;;
48588;SDS011;34369;51.174;6.738;2023-02-15T14:49:30;34.47;;;31.77;;
48588;SDS011;34369;51.174;6.738;2023-02-15T14:52:05;35.45;;;32.45;;
48588;SDS011;34369;51.174;6.738;2023-02-15T14:55:00;35.00;;;32.10;;
48588;SDS011;34369;51.174;6.738;2023-02-15T14:57:33;35.03;;;32.15;;
48588;SDS011;34369;51.174;6.738;2023-02-15T15:03:03;34.72;;;31.85;;
48588;SDS011;34369;51.174;6.738;2023-02-15T15:05:50;34.97;;;32.15;;
48588;SDS011;34369;51.174;6.738;2023-02-15T15:08:26;35.58;;;32.60;;
48588;SDS011;34369;51.174;6.738;2023-02-15T15:17:13;35.75;;;32.95;;
48588;SDS011;34369;51.174;6.738;2023-02-15T15:26:25;35.10;;;32.05;;
48588;SDS011;34369;51.174;6.738;2023-02-15T15:29:03;35.92;;;32.92;;
48588;SDS011;34369;51.174;6.738;2023-02-15T15:31:40;34.95;;;32.20;;
48588;SDS011;34369;51.174;6.738;2023-02-15T15:34:21;34.53;;;31.73;;
48588;SDS011;34369;51.174;6.738;2023-02-15T15:37:46;35.92;;;33.03;;
48588;SDS011;34369;51.174;6.738;2023-02-15T15:41:03;35.63;;;32.83;;
48588;SDS011;34369;51.174;6.738;2023-02-15T15:47:17;35.78;;;32.65;;
48588;SDS011;34369;51.174;6.738;2023-02-15T15:50:10;35.78;;;32.88;;
48588;SDS011;34369;51.174;6.738;2023-02-15T15:52:47;35.65;;;32.92;;
48588;SDS011;34369;51.174;6.738;2023-02-15T15:55:22;37.42;;;34.42;;
48588;SDS011;34369;51.174;6.738;2023-02-15T15:58:00;37.03;;;34.03;;
48588;SDS011;34369;51.174;6.738;2023-02-15T16:00:36;35.42;;;32.65;;
48588;SDS011;34369;51.174;6.738;2023-02-15T16:03:16;37.15;;;33.88;;
48588;SDS011;34369;51.174;6.738;2023-02-15T16:05:53;35.97;;;33.08;;
48588;SDS011;34369;51.174;6.738;2023-02-15T16:08:30;36.20;;;33.30;;